Terminal Aerodrome Forecast
Issued by NWS

Home | Current Version | Previous Version | Text Only | Print | Product List | Glossary On
Versions: 1 2 3 4 5 6 7 8 9 10 11 12 13 14 15 16 17 18 19 20 21 22 23 24 25 26 27 28 29 30 31 32 33 34 35 36 37 38 39 40 41 42
000
FTUS41 KGYX 292320
TAFMHT
TAF
KMHT 292320Z 3000/3024 15004KT P6SM OVC250
     FM300500 10003KT 3SM -SN BR OVC025
     FM300800 07004KT 1 1/2SM -SN BR OVC007
     FM301300 12004KT 1/2SM SN FG OVC003
     FM301900 32008KT 2SM -SN BR OVC007=

USA.gov is the U.S. government's official web portal to all federal, state and local government web resources and services.